createdAt,value
2023-01-27T00:18:27.081Z,19.8
2023-01-27T00:48:27.117Z,19.6
2023-01-27T01:18:26.825Z,19.6
2023-01-27T01:48:27.109Z,19.5
2023-01-27T02:18:27.288Z,19.4
2023-01-27T02:48:27.294Z,19.3
2023-01-27T03:18:27.300Z,19.3
2023-01-27T03:48:27.225Z,19.2
2023-01-27T04:18:27.248Z,19.1
2023-01-27T04:48:27.115Z,19.4
2023-01-27T05:18:27.111Z,19.5
2023-01-27T05:48:27.171Z,19.7
2023-01-27T06:18:27.349Z,19.9
2023-01-27T06:48:27.329Z,20.0
2023-01-27T07:18:27.228Z,20.1
2023-01-27T07:48:27.086Z,20.2
2023-01-27T08:18:27.118Z,20.3
2023-01-27T08:48:27.108Z,20.3
2023-01-27T09:18:27.098Z,20.4
2023-01-27T09:48:27.101Z,20.5
2023-01-27T10:18:27.110Z,20.5
2023-01-27T10:48:27.115Z,20.5
2023-01-27T11:18:27.133Z,20.5
2023-01-27T11:48:27.104Z,20.6
2023-01-27T12:18:27.063Z,20.6
2023-01-27T12:48:27.070Z,20.6
2023-01-27T13:18:27.099Z,20.7
2023-01-27T13:48:27.074Z,20.7
2023-01-27T14:18:27.230Z,20.8
2023-01-27T14:48:27.241Z,20.8
2023-01-27T15:18:27.239Z,20.8
2023-01-27T15:48:27.134Z,20.8
2023-01-27T16:18:27.190Z,20.8
2023-01-27T16:48:27.313Z,20.8
2023-01-27T17:18:27.085Z,20.8
2023-01-27T17:48:27.217Z,20.8
2023-01-27T18:18:27.114Z,20.8
2023-01-27T18:48:27.216Z,20.8
2023-01-27T19:18:27.192Z,20.8
2023-01-27T19:48:26.760Z,20.8
2023-01-27T20:18:27.103Z,20.6
2023-01-27T20:48:26.848Z,20.6
2023-01-27T21:18:26.755Z,20.5
2023-01-27T21:48:27.021Z,20.1
2023-01-27T22:18:27.062Z,20.0
2023-01-27T22:48:27.048Z,19.8
2023-01-27T23:18:27.133Z,19.8
2023-01-27T23:48:27.036Z,19.7
